createdAt,value
2023-04-03T00:02:18.564Z,6.37
2023-04-03T00:04:51.528Z,6.32
2023-04-03T00:07:23.024Z,6.32
2023-04-03T00:09:53.524Z,6.29
2023-04-03T00:12:21.396Z,6.27
2023-04-03T00:14:54.588Z,6.20
2023-04-03T00:17:21.688Z,6.19
2023-04-03T00:19:58.172Z,6.18
2023-04-03T00:22:25.309Z,6.13
2023-04-03T00:24:52.853Z,6.14
2023-04-03T00:27:27.408Z,6.19
2023-04-03T00:29:54.811Z,6.17
2023-04-03T00:32:27.883Z,6.22
2023-04-03T00:34:56.043Z,6.29
2023-04-03T00:37:31.286Z,6.35
2023-04-03T00:40:07.929Z,6.34
2023-04-03T00:42:49.332Z,6.30
2023-04-03T00:45:49.328Z,6.24
2023-04-03T00:48:44.740Z,6.26
2023-04-03T00:51:21.377Z,6.27
2023-04-03T00:54:09.802Z,6.29
2023-04-03T00:56:37.997Z,6.26
2023-04-03T00:59:28.114Z,6.26
2023-04-03T01:02:01.221Z,6.20
2023-04-03T01:04:38.137Z,6.15
2023-04-03T01:07:31.457Z,6.04
2023-04-03T01:10:01.219Z,5.89
2023-04-03T01:12:31.526Z,5.85
2023-04-03T01:15:01.315Z,5.82
2023-04-03T01:17:42.502Z,5.80
2023-04-03T01:20:31.325Z,5.79
2023-04-03T01:23:10.297Z,5.72
2023-04-03T01:25:53.188Z,5.72
2023-04-03T01:28:24.569Z,5.70
2023-04-03T01:31:16.939Z,5.70
2023-04-03T01:34:12.053Z,5.69
2023-04-03T01:36:42.312Z,5.67
2023-04-03T01:39:18.256Z,5.64
2023-04-03T01:41:45.974Z,5.63
2023-04-03T01:44:19.167Z,5.66
2023-04-03T01:46:46.527Z,5.67
2023-04-03T01:49:14.011Z,5.63
2023-04-03T01:51:40.739Z,5.59
2023-04-03T01:54:07.524Z,5.58
2023-04-03T01:56:34.345Z,5.49
2023-04-03T01:59:01.505Z,5.47
2023-04-03T02:01:29.006Z,5.39
2023-04-03T02:04:05.475Z,5.42
2023-04-03T02:06:33.752Z,5.39
2023-04-03T02:09:01.569Z,5.34
2023-04-03T02:11:34.280Z,5.25
2023-04-03T02:14:11.513Z,5.20
2023-04-03T02:16:44.794Z,5.16
2023-04-03T02:19:24.521Z,5.15
2023-04-03T02:21:57.434Z,5.15
2023-04-03T02:24:29.864Z,5.19
2023-04-03T02:26:59.920Z,5.22
2023-04-03T02:29:27.552Z,5.27
2023-04-03T02:31:55.133Z,5.25
2023-04-03T02:34:27.375Z,5.21
2023-04-03T02:36:59.154Z,5.15
2023-04-03T02:39:31.125Z,5.17
2023-04-03T02:42:10.036Z,5.13
2023-04-03T02:44:52.545Z,5.13
2023-04-03T02:47:26.611Z,5.06
2023-04-03T02:49:54.697Z,5.01
2023-04-03T02:52:27.103Z,4.96
2023-04-03T02:55:07.536Z,4.88
2023-04-03T02:57:37.986Z,4.82
2023-04-03T03:00:11.798Z,4.76
2023-04-03T03:02:41.784Z,4.66
2023-04-03T03:05:18.654Z,4.57
2023-04-03T03:10:52.006Z,4.46
2023-04-03T03:13:28.846Z,4.41
2023-04-03T03:16:03.214Z,4.40
2023-04-03T03:18:57.852Z,4.40
2023-04-03T03:21:40.189Z,4.37
2023-04-03T03:24:18.310Z,4.36
2023-04-03T03:26:59.449Z,4.34
2023-04-03T03:30:10.959Z,4.30
2023-04-03T03:33:25.174Z,4.26
2023-04-03T03:36:00.520Z,4.34
2023-04-03T03:38:41.244Z,4.34
2023-04-03T03:41:20.804Z,4.38
2023-04-03T03:44:03.633Z,4.41
2023-04-03T03:46:37.145Z,4.43
2023-04-03T03:49:08.750Z,4.51
2023-04-03T03:52:00.146Z,4.49
2023-04-03T03:54:31.161Z,4.45
2023-04-03T03:57:01.389Z,4.42
2023-04-03T03:59:31.099Z,4.42
2023-04-03T04:02:09.006Z,4.45
2023-04-03T04:04:47.878Z,4.51
2023-04-03T04:07:36.440Z,4.50
2023-04-03T04:10:09.897Z,4.56
2023-04-03T04:12:57.363Z,4.59
2023-04-03T04:15:32.251Z,4.58
2023-04-03T04:18:00.322Z,4.59
2023-04-03T04:20:43.180Z,4.64
2023-04-03T04:23:13.702Z,4.62
2023-04-03T04:25:41.435Z,4.62
2023-04-03T04:28:08.277Z,4.53
2023-04-03T04:30:47.942Z,4.45
2023-04-03T04:33:32.105Z,4.45
2023-04-03T04:36:02.193Z,4.39
2023-04-03T04:38:32.844Z,4.35
2023-04-03T04:41:02.179Z,4.36
2023-04-03T04:43:31.656Z,4.31
2023-04-03T04:46:07.330Z,4.30
2023-04-03T04:48:39.860Z,4.29
2023-04-03T04:51:48.464Z,4.24
2023-04-03T04:54:31.875Z,4.20
2023-04-03T04:57:03.544Z,4.19
2023-04-03T04:59:58.596Z,4.21
2023-04-03T05:02:26.041Z,4.23
2023-04-03T05:05:05.296Z,4.25
2023-04-03T05:07:35.842Z,4.23
2023-04-03T05:10:13.601Z,4.27
2023-04-03T05:12:44.436Z,4.26
2023-04-03T05:15:14.101Z,4.32
2023-04-03T05:17:42.238Z,4.38
2023-04-03T05:20:23.290Z,4.42
2023-04-03T05:22:58.912Z,4.43
2023-04-03T05:25:29.055Z,4.43
2023-04-03T05:27:59.445Z,4.43
2023-04-03T05:30:32.551Z,4.47
2023-04-03T05:33:01.558Z,4.53
2023-04-03T05:35:42.903Z,4.63
2023-04-03T05:38:15.315Z,4.64
2023-04-03T05:40:43.111Z,4.60
2023-04-03T05:43:10.061Z,4.60
2023-04-03T05:45:45.517Z,4.55
2023-04-03T05:48:17.651Z,4.59
2023-04-03T05:51:05.636Z,4.53
2023-04-03T05:53:37.377Z,4.46
2023-04-03T05:56:07.143Z,4.49
2023-04-03T05:58:39.095Z,4.52
2023-04-03T06:01:07.443Z,4.50
2023-04-03T06:03:39.544Z,4.52
2023-04-03T06:06:09.267Z,4.59
2023-04-03T06:08:36.117Z,4.60
2023-04-03T06:11:03.484Z,4.62
2023-04-03T06:13:30.567Z,4.67
2023-04-03T06:15:58.269Z,4.75
2023-04-03T06:18:28.214Z,4.77
2023-04-03T06:20:55.924Z,4.77
2023-04-03T06:23:23.048Z,4.79
2023-04-03T06:25:52.726Z,4.77
2023-04-03T06:28:20.662Z,4.75
2023-04-03T06:30:51.423Z,4.77
2023-04-03T06:33:24.804Z,4.76
2023-04-03T06:35:58.269Z,4.86
2023-04-03T06:38:25.608Z,6.46
2023-04-03T06:40:53.130Z,8.20
2023-04-03T06:43:24.315Z,9.43
2023-04-03T06:45:54.657Z,10.86
2023-04-03T06:48:25.294Z,12.05
2023-04-03T06:50:52.205Z,11.52
2023-04-03T06:53:19.532Z,10.52
2023-04-03T06:55:48.141Z,12.32
2023-04-03T06:58:17.829Z,13.14
2023-04-03T07:00:46.002Z,12.50
2023-04-03T07:03:13.233Z,9.45
2023-04-03T07:05:47.854Z,7.19
2023-04-03T07:08:16.577Z,6.59
2023-04-03T07:10:43.713Z,6.22
2023-04-03T07:13:10.588Z,6.04
2023-04-03T07:15:44.613Z,5.96
2023-04-03T07:18:14.914Z,5.94
2023-04-03T07:20:42.452Z,5.89
2023-04-03T07:23:09.598Z,5.97
2023-04-03T07:25:40.120Z,5.95
2023-04-03T07:28:09.871Z,5.95
2023-04-03T07:30:46.166Z,5.83
2023-04-03T07:33:14.435Z,5.94
2023-04-03T07:35:44.597Z,6.03
2023-04-03T07:38:14.642Z,6.27
2023-04-03T07:43:29.226Z,6.13
2023-04-03T07:46:00.597Z,6.28
2023-04-03T07:48:28.332Z,6.15
2023-04-03T07:54:09.301Z,6.27
2023-04-03T07:56:39.662Z,6.26
2023-04-03T07:59:20.748Z,6.37
2023-04-03T08:01:47.976Z,6.44
2023-04-03T08:04:20.998Z,6.53
2023-04-03T08:06:48.072Z,6.49
2023-04-03T08:09:20.922Z,6.60
2023-04-03T08:11:55.013Z,6.77
2023-04-03T08:14:21.971Z,6.76
2023-04-03T08:16:49.723Z,6.69
2023-04-03T08:19:26.015Z,6.67
2023-04-03T08:21:56.104Z,6.74
2023-04-03T08:24:22.902Z,6.67
2023-04-03T08:26:50.081Z,6.79
2023-04-03T08:29:17.372Z,6.95
2023-04-03T08:31:44.686Z,7.10
2023-04-03T08:34:12.494Z,7.13
2023-04-03T08:36:42.586Z,7.26
2023-04-03T08:39:10.176Z,7.19
2023-04-03T08:41:43.666Z,6.98
2023-04-03T08:44:44.936Z,7.10
2023-04-03T08:47:20.841Z,7.10
2023-04-03T08:49:52.473Z,7.16
2023-04-03T08:52:26.821Z,7.20
2023-04-03T08:55:02.260Z,7.38
2023-04-03T08:57:35.963Z,7.37
2023-04-03T09:00:19.109Z,7.61
2023-04-03T09:02:49.499Z,8.05
2023-04-03T09:05:47.414Z,8.82
2023-04-03T09:08:26.970Z,11.25
2023-04-03T09:11:08.397Z,17.84
2023-04-03T09:17:03.036Z,15.85
2023-04-03T09:19:33.362Z,22.96
2023-04-03T09:22:10.816Z,26.48
2023-04-03T09:24:39.592Z,27.79
2023-04-03T09:27:11.540Z,26.77
2023-04-03T09:29:44.541Z,26.49
2023-04-03T09:32:31.141Z,28.46
2023-04-03T09:35:19.000Z,28.99
2023-04-03T09:38:02.886Z,20.85
2023-04-03T09:40:36.463Z,20.02
2023-04-03T09:43:28.001Z,30.39
2023-04-03T09:45:57.676Z,28.68
2023-04-03T09:48:52.280Z,29.41
2023-04-03T09:51:28.841Z,26.76
2023-04-03T09:53:56.828Z,31.49
2023-04-03T09:56:27.922Z,33.55
2023-04-03T09:59:01.230Z,32.07
2023-04-03T10:01:40.956Z,32.71
2023-04-03T10:04:25.240Z,30.92
2023-04-03T10:06:54.731Z,31.72
2023-04-03T10:09:49.325Z,21.11
2023-04-03T10:12:21.501Z,26.78
2023-04-03T10:14:56.941Z,31.29
2023-04-03T10:17:52.615Z,33.94
2023-04-03T10:20:30.130Z,36.20
2023-04-03T10:23:27.196Z,35.81
2023-04-03T10:26:35.803Z,29.80
2023-04-03T10:29:27.308Z,25.98
2023-04-03T10:32:05.229Z,27.07
2023-04-03T10:34:43.520Z,26.27
2023-04-03T10:37:37.848Z,19.58
2023-04-03T10:40:33.330Z,21.26
2023-04-03T10:43:25.041Z,34.44
2023-04-03T10:46:11.203Z,41.90
2023-04-03T10:49:10.475Z,34.69
2023-04-03T10:51:52.357Z,23.07
2023-04-03T10:54:32.489Z,18.99
2023-04-03T10:57:12.443Z,17.79
2023-04-03T10:59:59.681Z,18.77
2023-04-03T11:02:35.561Z,31.44
2023-04-03T11:05:25.293Z,36.35
2023-04-03T11:07:57.722Z,38.04
2023-04-03T11:10:33.909Z,37.34
2023-04-03T11:13:12.243Z,38.07
2023-04-03T11:15:40.433Z,39.36
2023-04-03T11:18:18.730Z,36.37
2023-04-03T11:21:24.924Z,36.61
2023-04-03T11:24:45.276Z,37.74
2023-04-03T11:27:29.063Z,34.66
2023-04-03T11:33:49.770Z,28.62
2023-04-03T11:36:40.903Z,29.31
2023-04-03T11:39:37.449Z,32.63
2023-04-03T11:46:43.113Z,36.08
2023-04-03T11:50:09.466Z,36.97
2023-04-03T11:52:44.880Z,37.17
2023-04-03T11:55:26.210Z,37.30
2023-04-03T11:58:02.100Z,35.57
2023-04-03T12:01:07.346Z,35.27
2023-04-03T12:04:00.493Z,30.89
2023-04-03T12:06:33.605Z,30.63
2023-04-03T12:09:33.196Z,29.16
2023-04-03T12:12:07.931Z,26.84
2023-04-03T12:17:32.499Z,24.39
2023-04-03T12:20:39.750Z,23.90
2023-04-03T12:23:34.631Z,24.82
2023-04-03T12:26:06.528Z,27.94
2023-04-03T12:28:55.937Z,26.72
2023-04-03T12:32:17.552Z,23.64
2023-04-03T12:39:34.765Z,19.91
2023-04-03T12:46:53.310Z,17.35
2023-04-03T12:50:03.020Z,16.56
2023-04-03T12:52:52.822Z,16.37
2023-04-03T12:59:43.717Z,17.59
2023-04-03T13:03:44.471Z,17.60
2023-04-03T13:09:46.469Z,16.91
2023-04-03T13:15:42.039Z,16.84
2023-04-03T13:18:40.765Z,16.94
2023-04-03T13:25:09.048Z,16.80
2023-04-03T13:27:52.236Z,16.11
2023-04-03T13:31:43.516Z,15.60
2023-04-03T13:34:13.854Z,15.65
2023-04-03T13:37:15.717Z,15.72
2023-04-03T13:39:47.933Z,15.55
2023-04-03T13:42:33.703Z,15.40
2023-04-03T13:45:25.076Z,15.10
2023-04-03T13:47:56.235Z,14.89
2023-04-03T13:50:26.357Z,15.27
2023-04-03T13:52:55.175Z,15.94
2023-04-03T13:55:34.945Z,16.56
2023-04-03T13:58:21.456Z,16.21
2023-04-03T14:00:58.076Z,15.14
2023-04-03T14:03:34.615Z,14.33
2023-04-03T14:06:02.534Z,13.92
2023-04-03T14:08:41.690Z,13.76
2023-04-03T14:11:18.921Z,13.83
2023-04-03T14:13:48.152Z,13.78
2023-04-03T14:16:24.603Z,13.91
2023-04-03T14:18:52.499Z,14.26
2023-04-03T14:21:21.025Z,14.66
2023-04-03T14:23:48.481Z,14.98
2023-04-03T14:26:18.810Z,15.19
2023-04-03T14:28:58.834Z,14.87
2023-04-03T14:31:26.730Z,14.45
2023-04-03T14:33:54.032Z,14.08
2023-04-03T14:36:27.271Z,13.87
2023-04-03T14:38:55.145Z,13.78
2023-04-03T14:41:24.562Z,13.89
2023-04-03T14:43:51.906Z,13.93
2023-04-03T14:49:24.796Z,13.72
2023-04-03T14:51:51.638Z,13.60
2023-04-03T14:54:26.593Z,13.54
2023-04-03T14:56:55.078Z,13.67
2023-04-03T14:59:23.222Z,13.92
2023-04-03T15:01:53.307Z,13.99
2023-04-03T15:04:23.693Z,13.97
2023-04-03T15:06:54.170Z,13.87
2023-04-03T15:09:24.730Z,13.66
2023-04-03T15:11:54.208Z,13.57
2023-04-03T15:14:35.294Z,13.51
2023-04-03T15:17:15.640Z,13.29
2023-04-03T15:19:42.809Z,13.19
2023-04-03T15:22:17.712Z,13.05
2023-04-03T15:24:44.941Z,12.99
2023-04-03T15:27:13.480Z,13.04
2023-04-03T15:29:42.784Z,12.94
2023-04-03T15:32:11.715Z,12.79
2023-04-03T15:34:39.644Z,12.68
2023-04-03T15:37:06.739Z,12.62
2023-04-03T15:39:33.882Z,12.65
2023-04-03T15:42:06.947Z,12.68
2023-04-03T15:44:37.527Z,12.64
2023-04-03T15:47:05.648Z,12.60
2023-04-03T15:49:34.474Z,12.52
2023-04-03T15:52:01.408Z,12.43
2023-04-03T15:54:30.769Z,12.43
2023-04-03T15:56:57.742Z,12.42
2023-04-03T15:59:26.404Z,12.45
2023-04-03T16:01:56.382Z,12.56
2023-04-03T16:04:23.353Z,12.80
2023-04-03T16:07:01.043Z,12.93
2023-04-03T16:09:31.281Z,12.67
2023-04-03T16:12:08.721Z,12.53
2023-04-03T16:14:49.487Z,12.37
2023-04-03T16:17:19.144Z,12.16
2023-04-03T16:19:46.026Z,12.13
2023-04-03T16:22:18.811Z,11.97
2023-04-03T16:24:59.444Z,11.70
2023-04-03T16:27:36.608Z,11.60
2023-04-03T16:30:17.655Z,11.48
2023-04-03T16:32:48.298Z,11.41
2023-04-03T16:35:20.671Z,11.35
2023-04-03T16:37:47.818Z,11.29
2023-04-03T16:40:16.784Z,11.23
2023-04-03T16:42:43.747Z,11.16
2023-04-03T16:45:10.928Z,11.11
2023-04-03T16:47:37.846Z,11.11
2023-04-03T16:50:08.210Z,11.07
2023-04-03T16:52:35.313Z,11.00
2023-04-03T16:55:02.468Z,10.94
2023-04-03T16:57:29.850Z,10.86
2023-04-03T16:59:57.442Z,10.75
2023-04-03T17:02:28.756Z,10.68
2023-04-03T17:04:55.910Z,10.56
2023-04-03T17:07:25.383Z,10.49
2023-04-03T17:10:00.637Z,10.38
2023-04-03T17:12:34.793Z,10.27
2023-04-03T17:15:02.183Z,10.26
2023-04-03T17:17:35.906Z,10.23
2023-04-03T17:20:04.066Z,10.20
2023-04-03T17:22:31.057Z,10.13
2023-04-03T17:24:58.099Z,10.10
2023-04-03T17:27:25.422Z,10.04
2023-04-03T17:29:52.431Z,10.01
2023-04-03T17:32:19.735Z,9.95
2023-04-03T17:34:47.968Z,9.91
2023-04-03T17:37:18.771Z,9.86
2023-04-03T17:39:48.019Z,9.79
2023-04-03T17:42:15.066Z,9.75
2023-04-03T17:44:41.960Z,9.69
2023-04-03T17:47:08.854Z,9.61
2023-04-03T17:49:35.977Z,9.53
2023-04-03T17:52:04.246Z,9.49
2023-04-03T17:54:33.214Z,9.41
2023-04-03T17:57:03.631Z,9.35
2023-04-03T17:59:30.953Z,9.31
2023-04-03T18:01:58.091Z,9.27
2023-04-03T18:04:25.466Z,9.23
2023-04-03T18:06:55.742Z,9.19
2023-04-03T18:09:31.289Z,9.13
2023-04-03T18:12:00.594Z,9.10
2023-04-03T18:14:28.755Z,9.04
2023-04-03T18:16:57.435Z,9.00
2023-04-03T18:19:25.726Z,8.97
2023-04-03T18:21:57.549Z,8.91
2023-04-03T18:24:26.403Z,8.89
2023-04-03T18:27:01.572Z,8.77
2023-04-03T18:29:33.729Z,8.65
2023-04-03T18:32:01.585Z,8.54
2023-04-03T18:34:28.337Z,8.50
2023-04-03T18:36:55.170Z,8.47
2023-04-03T18:39:25.002Z,8.45
2023-04-03T18:42:05.261Z,8.43
2023-04-03T18:44:33.434Z,8.40
2023-04-03T18:47:00.625Z,8.37
2023-04-03T18:49:34.251Z,8.35
2023-04-03T18:52:01.098Z,8.33
2023-04-03T18:54:30.830Z,8.32
2023-04-03T18:56:57.992Z,8.26
2023-04-03T18:59:36.300Z,8.20
2023-04-03T19:02:04.893Z,8.18
2023-04-03T19:04:32.228Z,8.18
2023-04-03T19:06:59.885Z,8.14
2023-04-03T19:09:26.661Z,8.13
2023-04-03T19:11:53.526Z,8.09
2023-04-03T19:14:20.454Z,8.05
2023-04-03T19:16:47.614Z,8.03
2023-04-03T19:19:16.814Z,8.02
2023-04-03T19:21:43.628Z,7.98
2023-04-03T19:24:12.349Z,7.91
2023-04-03T19:26:48.713Z,7.86
2023-04-03T19:29:15.654Z,7.83
2023-04-03T19:32:02.033Z,7.80
2023-04-03T19:34:33.458Z,7.77
2023-04-03T19:37:08.494Z,7.75
2023-04-03T19:39:38.054Z,7.70
2023-04-03T19:42:44.145Z,7.64
2023-04-03T19:45:12.627Z,7.60
2023-04-03T19:47:56.409Z,7.57
2023-04-03T19:50:26.414Z,7.52
2023-04-03T19:53:02.414Z,7.48
2023-04-03T19:55:32.814Z,7.46
2023-04-03T19:58:04.110Z,7.44
2023-04-03T20:00:32.694Z,7.37
2023-04-03T20:03:17.386Z,7.32
2023-04-03T20:05:47.169Z,7.26
2023-04-03T20:08:14.143Z,7.21
2023-04-03T20:11:07.286Z,7.13
2023-04-03T20:13:37.882Z,7.06
2023-04-03T20:16:09.358Z,7.03
2023-04-03T20:18:40.675Z,7.02
2023-04-03T20:21:14.968Z,6.98
2023-04-03T20:24:18.655Z,6.96
2023-04-03T20:26:57.885Z,6.89
2023-04-03T20:29:32.084Z,6.86
2023-04-03T20:32:01.657Z,6.83
2023-04-03T20:34:28.805Z,6.79
2023-04-03T20:37:02.444Z,6.78
2023-04-03T20:39:29.673Z,6.75
2023-04-03T20:41:58.255Z,6.69
2023-04-03T20:44:26.167Z,6.64
2023-04-03T20:46:54.035Z,6.56
2023-04-03T20:49:23.144Z,6.54
2023-04-03T20:51:58.085Z,6.47
2023-04-03T20:54:25.255Z,6.40
2023-04-03T20:56:52.918Z,6.36
2023-04-03T20:59:24.303Z,6.36
2023-04-03T21:01:51.524Z,6.30
2023-04-03T21:04:33.194Z,6.26
2023-04-03T21:07:39.046Z,6.23
2023-04-03T21:10:44.742Z,6.17
2023-04-03T21:13:49.372Z,6.12
2023-04-03T21:16:16.005Z,6.08
2023-04-03T21:18:49.696Z,6.09
2023-04-03T21:21:26.564Z,6.08
2023-04-03T21:23:54.818Z,6.08
2023-04-03T21:26:33.733Z,6.06
2023-04-03T21:29:01.044Z,6.03
2023-04-03T21:31:46.990Z,6.04
2023-04-03T21:34:15.936Z,6.02
2023-04-03T21:36:43.790Z,5.98
2023-04-03T21:39:11.304Z,5.93
2023-04-03T21:41:38.631Z,5.89
2023-04-03T21:44:05.515Z,5.86
2023-04-03T21:46:33.511Z,5.80
2023-04-03T21:49:01.399Z,5.77
2023-04-03T21:51:28.884Z,5.76
2023-04-03T21:53:56.398Z,5.74
2023-04-03T21:56:24.619Z,5.69
2023-04-03T21:58:51.654Z,5.65
2023-04-03T22:01:19.919Z,5.61
2023-04-03T22:03:47.660Z,5.61
2023-04-03T22:06:17.102Z,5.62
2023-04-03T22:08:44.491Z,5.59
2023-04-03T22:11:14.484Z,5.52
2023-04-03T22:13:42.712Z,5.45
2023-04-03T22:16:11.616Z,5.44
2023-04-03T22:18:38.854Z,5.40
2023-04-03T22:21:09.171Z,5.36
2023-04-03T22:23:36.403Z,5.34
2023-04-03T22:26:08.308Z,5.33
2023-04-03T22:28:38.385Z,5.32
2023-04-03T22:31:11.798Z,5.31
2023-04-03T22:33:38.911Z,5.27
2023-04-03T22:36:07.244Z,5.24
2023-04-03T22:38:35.077Z,5.21
2023-04-03T22:41:03.700Z,5.18
2023-04-03T22:43:32.535Z,5.14
2023-04-03T22:46:08.771Z,5.08
2023-04-03T22:48:36.899Z,5.04
2023-04-03T22:51:07.646Z,5.03
2023-04-03T22:53:35.502Z,5.01
2023-04-03T22:56:04.756Z,5.00
2023-04-03T22:58:31.555Z,4.95
2023-04-03T23:01:09.271Z,4.94
2023-04-03T23:03:38.094Z,4.93
2023-04-03T23:06:05.583Z,4.89
2023-04-03T23:08:34.525Z,4.86
2023-04-03T23:11:01.698Z,4.86
2023-04-03T23:13:28.566Z,4.87
2023-04-03T23:16:00.198Z,4.87
2023-04-03T23:18:30.672Z,4.85
2023-04-03T23:21:04.670Z,4.81
2023-04-03T23:23:32.217Z,4.78
2023-04-03T23:26:01.459Z,4.75
2023-04-03T23:28:28.970Z,4.75
2023-04-03T23:31:00.318Z,4.75
2023-04-03T23:33:28.277Z,4.74
2023-04-03T23:35:56.073Z,4.72
2023-04-03T23:38:22.744Z,4.68
2023-04-03T23:40:49.384Z,4.68
2023-04-03T23:43:16.296Z,4.64
2023-04-03T23:45:45.155Z,4.64
2023-04-03T23:48:12.703Z,4.59
2023-04-03T23:50:39.653Z,4.58
2023-04-03T23:53:06.499Z,4.57
2023-04-03T23:55:34.471Z,4.55
2023-04-03T23:58:01.498Z,4.55
